sensor_id;sensor_type;location;lat;lon;timestamp;temperature;humidity
66373;SHT30;53168;51.146;17.120;2022-09-06T00:00:10;16.25;52.06
66373;SHT30;53168;51.146;17.120;2022-09-06T00:02:54;16.21;52.13
66373;SHT30;53168;51.146;17.120;2022-09-06T00:05:24;16.17;52.21
66373;SHT30;53168;51.146;17.120;2022-09-06T00:07:54;16.13;52.26
66373;SHT30;53168;51.146;17.120;2022-09-06T00:10:25;16.06;52.37
66373;SHT30;53168;51.146;17.120;2022-09-06T00:12:59;16.02;52.40
66373;SHT30;53168;51.146;17.120;2022-09-06T00:15:31;15.95;52.49
66373;SHT30;53168;51.146;17.120;2022-09-06T00:18:02;15.88;52.50
66373;SHT30;53168;51.146;17.120;2022-09-06T00:20:33;15.81;52.66
66373;SHT30;53168;51.146;17.120;2022-09-06T00:23:07;15.74;52.66
66373;SHT30;53168;51.146;17.120;2022-09-06T00:25:37;15.67;52.81
66373;SHT30;53168;51.146;17.120;2022-09-06T00:28:07;15.60;52.89
66373;SHT30;53168;51.146;17.120;2022-09-06T00:30:37;15.55;53.01
66373;SHT30;53168;51.146;17.120;2022-09-06T00:33:07;15.47;53.14
66373;SHT30;53168;51.146;17.120;2022-09-06T00:35:36;15.42;53.35
66373;SHT30;53168;51.146;17.120;2022-09-06T00:38:05;15.36;53.29
66373;SHT30;53168;51.146;17.120;2022-09-06T00:40:35;15.31;53.38
66373;SHT30;53168;51.146;17.120;2022-09-06T00:43:04;15.27;53.58
66373;SHT30;53168;51.146;17.120;2022-09-06T00:45:33;15.22;53.55
66373;SHT30;53168;51.146;17.120;2022-09-06T00:48:03;15.18;53.56
66373;SHT30;53168;51.146;17.120;2022-09-06T00:50:33;15.14;53.64
66373;SHT30;53168;51.146;17.120;2022-09-06T00:53:02;15.09;53.74
66373;SHT30;53168;51.146;17.120;2022-09-06T00:55:31;15.04;53.91
66373;SHT30;53168;51.146;17.120;2022-09-06T00:58:01;14.99;53.98
66373;SHT30;53168;51.146;17.120;2022-09-06T01:00:30;14.94;54.18
66373;SHT30;53168;51.146;17.120;2022-09-06T01:02:59;14.89;54.37
66373;SHT30;53168;51.146;17.120;2022-09-06T01:05:31;14.85;54.50
66373;SHT30;53168;51.146;17.120;2022-09-06T01:08:21;14.80;54.49
66373;SHT30;53168;51.146;17.120;2022-09-06T01:11:09;14.77;54.68
66373;SHT30;53168;51.146;17.120;2022-09-06T01:14:15;14.73;55.18
66373;SHT30;53168;51.146;17.120;2022-09-06T01:21:44;14.63;55.57
66373;SHT30;53168;51.146;17.120;2022-09-06T01:24:39;14.63;55.88
66373;SHT30;53168;51.146;17.120;2022-09-06T01:30:47;14.64;55.83
66373;SHT30;53168;51.146;17.120;2022-09-06T01:34:22;14.65;55.94
66373;SHT30;53168;51.146;17.120;2022-09-06T01:36:58;14.67;55.83
66373;SHT30;53168;51.146;17.120;2022-09-06T01:39:38;14.69;55.98
66373;SHT30;53168;51.146;17.120;2022-09-06T01:42:11;14.70;56.04
66373;SHT30;53168;51.146;17.120;2022-09-06T01:44:46;14.69;56.11
66373;SHT30;53168;51.146;17.120;2022-09-06T01:47:26;14.70;56.13
66373;SHT30;53168;51.146;17.120;2022-09-06T01:54:18;14.73;55.89
66373;SHT30;53168;51.146;17.120;2022-09-06T01:58:29;14.74;55.95
66373;SHT30;53168;51.146;17.120;2022-09-06T02:04:30;14.76;55.75
66373;SHT30;53168;51.146;17.120;2022-09-06T02:07:11;14.78;55.85
66373;SHT30;53168;51.146;17.120;2022-09-06T02:09:48;14.76;55.86
66373;SHT30;53168;51.146;17.120;2022-09-06T02:12:22;14.77;55.91
66373;SHT30;53168;51.146;17.120;2022-09-06T02:14:56;14.76;55.87
66373;SHT30;53168;51.146;17.120;2022-09-06T02:17:37;14.74;55.88
66373;SHT30;53168;51.146;17.120;2022-09-06T02:20:15;14.70;55.92
66373;SHT30;53168;51.146;17.120;2022-09-06T02:23:11;14.63;56.07
66373;SHT30;53168;51.146;17.120;2022-09-06T02:26:04;14.55;56.33
66373;SHT30;53168;51.146;17.120;2022-09-06T02:28:55;14.46;56.48
66373;SHT30;53168;51.146;17.120;2022-09-06T02:31:27;14.38;56.56
66373;SHT30;53168;51.146;17.120;2022-09-06T02:34:03;14.30;56.46
66373;SHT30;53168;51.146;17.120;2022-09-06T02:36:34;14.24;56.50
66373;SHT30;53168;51.146;17.120;2022-09-06T02:39:05;14.20;56.57
66373;SHT30;53168;51.146;17.120;2022-09-06T02:41:34;14.13;56.77
66373;SHT30;53168;51.146;17.120;2022-09-06T02:44:06;14.05;56.87
66373;SHT30;53168;51.146;17.120;2022-09-06T02:46:35;13.97;57.08
66373;SHT30;53168;51.146;17.120;2022-09-06T02:49:05;13.91;57.13
66373;SHT30;53168;51.146;17.120;2022-09-06T02:51:36;13.84;57.38
66373;SHT30;53168;51.146;17.120;2022-09-06T02:54:06;13.77;57.46
66373;SHT30;53168;51.146;17.120;2022-09-06T02:56:36;13.72;57.70
66373;SHT30;53168;51.146;17.120;2022-09-06T02:59:06;13.66;58.04
66373;SHT30;53168;51.146;17.120;2022-09-06T03:01:43;13.60;58.18
66373;SHT30;53168;51.146;17.120;2022-09-06T03:04:12;13.55;58.25
66373;SHT30;53168;51.146;17.120;2022-09-06T03:06:41;13.49;58.48
66373;SHT30;53168;51.146;17.120;2022-09-06T03:09:11;13.44;58.73
66373;SHT30;53168;51.146;17.120;2022-09-06T03:11:40;13.37;58.76
66373;SHT30;53168;51.146;17.120;2022-09-06T03:14:09;13.32;59.11
66373;SHT30;53168;51.146;17.120;2022-09-06T03:16:40;13.26;59.18
66373;SHT30;53168;51.146;17.120;2022-09-06T03:19:10;13.22;59.40
66373;SHT30;53168;51.146;17.120;2022-09-06T03:21:40;13.18;59.65
66373;SHT30;53168;51.146;17.120;2022-09-06T03:24:09;13.14;59.83
66373;SHT30;53168;51.146;17.120;2022-09-06T03:26:39;13.09;60.03
66373;SHT30;53168;51.146;17.120;2022-09-06T03:29:13;13.03;60.19
66373;SHT30;53168;51.146;17.120;2022-09-06T03:31:43;13.00;60.38
66373;SHT30;53168;51.146;17.120;2022-09-06T03:34:13;12.96;60.38
66373;SHT30;53168;51.146;17.120;2022-09-06T03:36:42;12.95;60.22
66373;SHT30;53168;51.146;17.120;2022-09-06T03:39:11;12.97;60.30
66373;SHT30;53168;51.146;17.120;2022-09-06T03:41:40;13.01;60.45
66373;SHT30;53168;51.146;17.120;2022-09-06T03:44:09;13.06;60.60
66373;SHT30;53168;51.146;17.120;2022-09-06T03:46:39;13.11;60.53
66373;SHT30;53168;51.146;17.120;2022-09-06T03:49:12;13.15;60.41
66373;SHT30;53168;51.146;17.120;2022-09-06T03:51:46;13.18;60.82
66373;SHT30;53168;51.146;17.120;2022-09-06T03:54:24;13.19;60.87
66373;SHT30;53168;51.146;17.120;2022-09-06T03:56:55;13.21;60.59
66373;SHT30;53168;51.146;17.120;2022-09-06T03:59:25;13.23;60.79
66373;SHT30;53168;51.146;17.120;2022-09-06T04:01:54;13.24;60.78
66373;SHT30;53168;51.146;17.120;2022-09-06T04:04:23;13.25;60.96
66373;SHT30;53168;51.146;17.120;2022-09-06T04:06:53;13.25;61.06
66373;SHT30;53168;51.146;17.120;2022-09-06T04:09:22;13.24;61.18
66373;SHT30;53168;51.146;17.120;2022-09-06T04:11:51;13.23;61.31
66373;SHT30;53168;51.146;17.120;2022-09-06T04:14:21;13.22;61.25
66373;SHT30;53168;51.146;17.120;2022-09-06T04:16:50;13.23;61.42
66373;SHT30;53168;51.146;17.120;2022-09-06T04:19:22;13.22;61.54
66373;SHT30;53168;51.146;17.120;2022-09-06T04:21:53;13.23;61.09
66373;SHT30;53168;51.146;17.120;2022-09-06T04:24:23;13.28;61.07
66373;SHT30;53168;51.146;17.120;2022-09-06T04:26:56;13.34;60.89
66373;SHT30;53168;51.146;17.120;2022-09-06T04:29:30;13.38;60.89
66373;SHT30;53168;51.146;17.120;2022-09-06T04:32:01;13.44;60.68
66373;SHT30;53168;51.146;17.120;2022-09-06T04:34:31;13.49;60.56
66373;SHT30;53168;51.146;17.120;2022-09-06T04:37:01;13.55;60.27
66373;SHT30;53168;51.146;17.120;2022-09-06T04:39:41;13.61;60.22
66373;SHT30;53168;51.146;17.120;2022-09-06T04:42:15;13.68;60.12
66373;SHT30;53168;51.146;17.120;2022-09-06T04:44:55;13.75;60.18
66373;SHT30;53168;51.146;17.120;2022-09-06T04:47:24;13.78;60.28
66373;SHT30;53168;51.146;17.120;2022-09-06T04:49:54;13.78;60.36
66373;SHT30;53168;51.146;17.120;2022-09-06T04:52:23;13.79;60.15
66373;SHT30;53168;51.146;17.120;2022-09-06T04:54:56;13.82;60.31
66373;SHT30;53168;51.146;17.120;2022-09-06T04:57:26;13.83;60.28
66373;SHT30;53168;51.146;17.120;2022-09-06T04:59:55;13.85;60.25
66373;SHT30;53168;51.146;17.120;2022-09-06T05:02:24;13.88;60.17
66373;SHT30;53168;51.146;17.120;2022-09-06T05:04:53;13.88;60.08
66373;SHT30;53168;51.146;17.120;2022-09-06T05:07:22;13.91;59.96
66373;SHT30;53168;51.146;17.120;2022-09-06T05:09:52;13.93;60.07
66373;SHT30;53168;51.146;17.120;2022-09-06T05:12:21;13.93;60.08
66373;SHT30;53168;51.146;17.120;2022-09-06T05:18:08;13.97;60.33
66373;SHT30;53168;51.146;17.120;2022-09-06T05:21:00;13.96;60.34
66373;SHT30;53168;51.146;17.120;2022-09-06T05:23:38;13.98;60.18
66373;SHT30;53168;51.146;17.120;2022-09-06T05:27:01;14.03;60.41
66373;SHT30;53168;51.146;17.120;2022-09-06T05:29:39;14.05;60.50
66373;SHT30;53168;51.146;17.120;2022-09-06T05:32:08;14.06;60.42
66373;SHT30;53168;51.146;17.120;2022-09-06T05:34:38;14.09;60.44
66373;SHT30;53168;51.146;17.120;2022-09-06T05:37:07;14.08;60.53
66373;SHT30;53168;51.146;17.120;2022-09-06T05:39:36;14.07;60.32
66373;SHT30;53168;51.146;17.120;2022-09-06T05:42:06;14.08;60.23
66373;SHT30;53168;51.146;17.120;2022-09-06T05:44:40;14.12;60.24
66373;SHT30;53168;51.146;17.120;2022-09-06T05:47:10;14.18;60.16
66373;SHT30;53168;51.146;17.120;2022-09-06T05:49:39;14.22;60.15
66373;SHT30;53168;51.146;17.120;2022-09-06T05:52:08;14.28;60.10
66373;SHT30;53168;51.146;17.120;2022-09-06T05:54:38;14.33;60.06
66373;SHT30;53168;51.146;17.120;2022-09-06T05:57:07;14.39;60.06
66373;SHT30;53168;51.146;17.120;2022-09-06T05:59:47;14.48;59.98
66373;SHT30;53168;51.146;17.120;2022-09-06T06:02:16;14.55;59.77
66373;SHT30;53168;51.146;17.120;2022-09-06T06:04:45;14.61;59.67
66373;SHT30;53168;51.146;17.120;2022-09-06T06:07:15;14.66;59.46
66373;SHT30;53168;51.146;17.120;2022-09-06T06:09:44;14.74;59.45
66373;SHT30;53168;51.146;17.120;2022-09-06T06:12:13;14.84;59.42
66373;SHT30;53168;51.146;17.120;2022-09-06T06:14:43;14.93;59.29
66373;SHT30;53168;51.146;17.120;2022-09-06T06:17:13;15.06;59.21
66373;SHT30;53168;51.146;17.120;2022-09-06T06:19:42;15.20;59.28
66373;SHT30;53168;51.146;17.120;2022-09-06T06:22:11;15.33;58.75
66373;SHT30;53168;51.146;17.120;2022-09-06T06:24:41;15.46;58.71
66373;SHT30;53168;51.146;17.120;2022-09-06T06:27:12;15.59;58.83
66373;SHT30;53168;51.146;17.120;2022-09-06T06:33:05;15.82;58.73
66373;SHT30;53168;51.146;17.120;2022-09-06T06:35:34;15.86;57.90
66373;SHT30;53168;51.146;17.120;2022-09-06T06:38:06;15.90;57.67
66373;SHT30;53168;51.146;17.120;2022-09-06T06:40:45;15.98;57.53
66373;SHT30;53168;51.146;17.120;2022-09-06T06:43:38;16.04;56.87
66373;SHT30;53168;51.146;17.120;2022-09-06T06:46:08;16.05;56.60
66373;SHT30;53168;51.146;17.120;2022-09-06T06:48:41;16.10;56.92
66373;SHT30;53168;51.146;17.120;2022-09-06T06:51:12;16.17;56.80
66373;SHT30;53168;51.146;17.120;2022-09-06T06:53:44;16.22;56.99
66373;SHT30;53168;51.146;17.120;2022-09-06T06:56:16;16.24;56.32
66373;SHT30;53168;51.146;17.120;2022-09-06T06:58:49;16.25;56.55
66373;SHT30;53168;51.146;17.120;2022-09-06T07:01:21;16.30;56.64
66373;SHT30;53168;51.146;17.120;2022-09-06T07:03:52;16.34;56.56
66373;SHT30;53168;51.146;17.120;2022-09-06T07:06:21;16.38;56.59
66373;SHT30;53168;51.146;17.120;2022-09-06T07:09:13;16.42;56.30
66373;SHT30;53168;51.146;17.120;2022-09-06T07:11:44;16.42;56.30
66373;SHT30;53168;51.146;17.120;2022-09-06T07:14:15;16.44;56.61
66373;SHT30;53168;51.146;17.120;2022-09-06T07:16:45;16.49;56.75
66373;SHT30;53168;51.146;17.120;2022-09-06T07:19:15;16.51;56.48
66373;SHT30;53168;51.146;17.120;2022-09-06T07:22:04;16.55;56.46
66373;SHT30;53168;51.146;17.120;2022-09-06T07:24:38;16.60;56.59
66373;SHT30;53168;51.146;17.120;2022-09-06T07:27:07;16.62;55.91
66373;SHT30;53168;51.146;17.120;2022-09-06T07:29:56;16.61;56.07
66373;SHT30;53168;51.146;17.120;2022-09-06T07:32:25;16.59;56.18
66373;SHT30;53168;51.146;17.120;2022-09-06T07:34:54;16.61;56.03
66373;SHT30;53168;51.146;17.120;2022-09-06T07:37:23;16.64;56.24
66373;SHT30;53168;51.146;17.120;2022-09-06T07:39:52;16.66;55.83
66373;SHT30;53168;51.146;17.120;2022-09-06T07:42:21;16.64;55.57
66373;SHT30;53168;51.146;17.120;2022-09-06T07:44:51;16.65;55.77
66373;SHT30;53168;51.146;17.120;2022-09-06T07:47:23;16.68;56.03
66373;SHT30;53168;51.146;17.120;2022-09-06T07:50:12;16.73;55.53
66373;SHT30;53168;51.146;17.120;2022-09-06T07:53:03;16.75;55.79
66373;SHT30;53168;51.146;17.120;2022-09-06T07:55:38;16.76;55.50
66373;SHT30;53168;51.146;17.120;2022-09-06T07:58:07;16.78;55.43
66373;SHT30;53168;51.146;17.120;2022-09-06T08:00:36;16.84;55.67
66373;SHT30;53168;51.146;17.120;2022-09-06T08:03:06;16.97;55.71
66373;SHT30;53168;51.146;17.120;2022-09-06T08:05:35;17.07;55.56
66373;SHT30;53168;51.146;17.120;2022-09-06T08:08:25;17.18;55.36
66373;SHT30;53168;51.146;17.120;2022-09-06T08:11:15;17.32;55.47
66373;SHT30;53168;51.146;17.120;2022-09-06T08:13:46;17.46;55.47
66373;SHT30;53168;51.146;17.120;2022-09-06T08:16:18;17.58;55.51
66373;SHT30;53168;51.146;17.120;2022-09-06T08:18:49;17.65;55.30
66373;SHT30;53168;51.146;17.120;2022-09-06T08:21:22;17.71;55.42
66373;SHT30;53168;51.146;17.120;2022-09-06T08:27:46;17.95;55.00
66373;SHT30;53168;51.146;17.120;2022-09-06T08:30:15;18.03;54.62
66373;SHT30;53168;51.146;17.120;2022-09-06T08:32:44;18.09;54.46
66373;SHT30;53168;51.146;17.120;2022-09-06T08:35:14;18.09;54.14
66373;SHT30;53168;51.146;17.120;2022-09-06T08:37:43;18.10;54.14
66373;SHT30;53168;51.146;17.120;2022-09-06T08:40:13;18.15;54.22
66373;SHT30;53168;51.146;17.120;2022-09-06T08:42:48;18.26;54.06
66373;SHT30;53168;51.146;17.120;2022-09-06T08:45:19;18.30;53.76
66373;SHT30;53168;51.146;17.120;2022-09-06T08:47:49;18.37;53.75
66373;SHT30;53168;51.146;17.120;2022-09-06T08:50:18;18.39;53.52
66373;SHT30;53168;51.146;17.120;2022-09-06T08:55:47;18.30;53.82
66373;SHT30;53168;51.146;17.120;2022-09-06T08:58:38;18.28;53.42
66373;SHT30;53168;51.146;17.120;2022-09-06T09:01:31;18.36;53.84
66373;SHT30;53168;51.146;17.120;2022-09-06T09:04:12;18.49;53.57
66373;SHT30;53168;51.146;17.120;2022-09-06T09:06:49;18.68;53.42
66373;SHT30;53168;51.146;17.120;2022-09-06T09:09:26;18.88;52.79
66373;SHT30;53168;51.146;17.120;2022-09-06T09:12:01;19.09;52.73
66373;SHT30;53168;51.146;17.120;2022-09-06T09:14:32;19.29;52.66
66373;SHT30;53168;51.146;17.120;2022-09-06T09:17:09;19.51;53.05
66373;SHT30;53168;51.146;17.120;2022-09-06T09:19:47;19.78;51.89
66373;SHT30;53168;51.146;17.120;2022-09-06T09:22:17;20.02;51.52
66373;SHT30;53168;51.146;17.120;2022-09-06T09:24:47;20.30;51.56
66373;SHT30;53168;51.146;17.120;2022-09-06T09:27:20;20.61;50.34
66373;SHT30;53168;51.146;17.120;2022-09-06T09:29:57;20.89;49.54
66373;SHT30;53168;51.146;17.120;2022-09-06T09:32:51;21.17;49.18
66373;SHT30;53168;51.146;17.120;2022-09-06T09:35:22;21.42;49.19
66373;SHT30;53168;51.146;17.120;2022-09-06T09:38:00;21.74;49.13
66373;SHT30;53168;51.146;17.120;2022-09-06T09:40:38;21.98;48.30
66373;SHT30;53168;51.146;17.120;2022-09-06T09:43:16;22.11;47.87
66373;SHT30;53168;51.146;17.120;2022-09-06T09:46:13;22.13;47.74
66373;SHT30;53168;51.146;17.120;2022-09-06T09:49:00;22.09;47.51
66373;SHT30;53168;51.146;17.120;2022-09-06T09:51:36;21.98;47.04
66373;SHT30;53168;51.146;17.120;2022-09-06T09:54:09;21.92;47.04
66373;SHT30;53168;51.146;17.120;2022-09-06T09:56:44;21.93;47.05
66373;SHT30;53168;51.146;17.120;2022-09-06T09:59:49;22.03;47.02
66373;SHT30;53168;51.146;17.120;2022-09-06T10:02:24;22.05;46.86
66373;SHT30;53168;51.146;17.120;2022-09-06T10:05:00;21.99;46.95
66373;SHT30;53168;51.146;17.120;2022-09-06T10:07:40;21.98;46.02
66373;SHT30;53168;51.146;17.120;2022-09-06T10:10:13;22.10;46.42
66373;SHT30;53168;51.146;17.120;2022-09-06T10:12:49;22.27;46.38
66373;SHT30;53168;51.146;17.120;2022-09-06T10:15:37;22.44;46.29
66373;SHT30;53168;51.146;17.120;2022-09-06T10:18:13;22.52;45.82
66373;SHT30;53168;51.146;17.120;2022-09-06T10:20:56;22.55;45.69
66373;SHT30;53168;51.146;17.120;2022-09-06T10:23:32;22.58;45.71
66373;SHT30;53168;51.146;17.120;2022-09-06T10:26:37;22.58;46.26
66373;SHT30;53168;51.146;17.120;2022-09-06T10:29:17;22.51;45.72
66373;SHT30;53168;51.146;17.120;2022-09-06T10:32:08;22.50;45.87
66373;SHT30;53168;51.146;17.120;2022-09-06T10:37:52;22.67;44.85
66373;SHT30;53168;51.146;17.120;2022-09-06T10:40:44;22.80;44.70
66373;SHT30;53168;51.146;17.120;2022-09-06T10:43:28;22.91;43.54
66373;SHT30;53168;51.146;17.120;2022-09-06T10:46:10;23.02;44.16
66373;SHT30;53168;51.146;17.120;2022-09-06T10:48:44;23.24;44.48
66373;SHT30;53168;51.146;17.120;2022-09-06T10:51:27;23.42;43.54
66373;SHT30;53168;51.146;17.120;2022-09-06T10:54:08;23.52;43.84
66373;SHT30;53168;51.146;17.120;2022-09-06T10:56:40;23.70;43.20
66373;SHT30;53168;51.146;17.120;2022-09-06T10:59:20;23.85;43.16
66373;SHT30;53168;51.146;17.120;2022-09-06T11:02:01;23.93;41.97
66373;SHT30;53168;51.146;17.120;2022-09-06T11:04:49;23.96;41.73
66373;SHT30;53168;51.146;17.120;2022-09-06T11:07:42;23.95;42.05
66373;SHT30;53168;51.146;17.120;2022-09-06T11:30:27;24.79;39.09
66373;SHT30;53168;51.146;17.120;2022-09-06T11:33:04;24.84;39.77
66373;SHT30;53168;51.146;17.120;2022-09-06T11:35:46;24.99;39.09
66373;SHT30;53168;51.146;17.120;2022-09-06T11:38:21;25.04;38.93
66373;SHT30;53168;51.146;17.120;2022-09-06T11:40:56;25.03;38.63
66373;SHT30;53168;51.146;17.120;2022-09-06T11:43:44;24.90;38.90
66373;SHT30;53168;51.146;17.120;2022-09-06T11:49:28;24.40;38.50
66373;SHT30;53168;51.146;17.120;2022-09-06T11:55:39;24.64;38.99
66373;SHT30;53168;51.146;17.120;2022-09-06T11:58:19;24.82;38.55
66373;SHT30;53168;51.146;17.120;2022-09-06T12:04:05;25.42;38.56
66373;SHT30;53168;51.146;17.120;2022-09-06T12:06:41;25.59;38.07
66373;SHT30;53168;51.146;17.120;2022-09-06T12:09:34;25.34;38.00
66373;SHT30;53168;51.146;17.120;2022-09-06T12:12:08;25.16;38.57
66373;SHT30;53168;51.146;17.120;2022-09-06T12:14:59;24.97;39.01
66373;SHT30;53168;51.146;17.120;2022-09-06T12:17:52;24.84;38.70
66373;SHT30;53168;51.146;17.120;2022-09-06T12:23:42;24.53;38.32
66373;SHT30;53168;51.146;17.120;2022-09-06T12:26:11;24.39;38.78
66373;SHT30;53168;51.146;17.120;2022-09-06T12:29:22;24.36;38.92
66373;SHT30;53168;51.146;17.120;2022-09-06T12:31:54;24.38;38.87
66373;SHT30;53168;51.146;17.120;2022-09-06T12:34:28;24.38;38.98
66373;SHT30;53168;51.146;17.120;2022-09-06T12:37:02;24.45;38.99
66373;SHT30;53168;51.146;17.120;2022-09-06T12:42:54;24.55;38.46
66373;SHT30;53168;51.146;17.120;2022-09-06T12:45:58;24.70;37.81
66373;SHT30;53168;51.146;17.120;2022-09-06T12:49:14;24.99;38.06
66373;SHT30;53168;51.146;17.120;2022-09-06T12:52:11;25.29;37.94
66373;SHT30;53168;51.146;17.120;2022-09-06T12:55:13;25.77;37.74
66373;SHT30;53168;51.146;17.120;2022-09-06T12:57:49;26.27;36.95
66373;SHT30;53168;51.146;17.120;2022-09-06T13:00:21;26.74;36.56
66373;SHT30;53168;51.146;17.120;2022-09-06T13:02:59;27.16;35.66
66373;SHT30;53168;51.146;17.120;2022-09-06T13:05:45;27.99;35.04
66373;SHT30;53168;51.146;17.120;2022-09-06T13:08:16;28.37;35.45
66373;SHT30;53168;51.146;17.120;2022-09-06T13:10:55;28.46;34.23
66373;SHT30;53168;51.146;17.120;2022-09-06T13:13:25;28.94;34.68
66373;SHT30;53168;51.146;17.120;2022-09-06T13:15:55;29.72;33.45
66373;SHT30;53168;51.146;17.120;2022-09-06T13:18:30;30.81;33.01
66373;SHT30;53168;51.146;17.120;2022-09-06T13:21:03;31.24;32.91
66373;SHT30;53168;51.146;17.120;2022-09-06T13:23:41;31.14;31.57
66373;SHT30;53168;51.146;17.120;2022-09-06T13:26:14;30.68;31.19
66373;SHT30;53168;51.146;17.120;2022-09-06T13:29:08;30.53;31.92
66373;SHT30;53168;51.146;17.120;2022-09-06T13:31:48;30.82;32.33
66373;SHT30;53168;51.146;17.120;2022-09-06T13:34:20;31.27;31.56
66373;SHT30;53168;51.146;17.120;2022-09-06T13:36:52;31.45;30.44
66373;SHT30;53168;51.146;17.120;2022-09-06T13:39:31;31.27;31.10
66373;SHT30;53168;51.146;17.120;2022-09-06T13:45:14;30.58;31.80
66373;SHT30;53168;51.146;17.120;2022-09-06T13:48:30;30.31;31.35
66373;SHT30;53168;51.146;17.120;2022-09-06T13:54:02;29.52;32.01
66373;SHT30;53168;51.146;17.120;2022-09-06T13:56:34;29.27;31.67
66373;SHT30;53168;51.146;17.120;2022-09-06T13:59:24;29.09;31.98
66373;SHT30;53168;51.146;17.120;2022-09-06T14:01:57;29.00;32.06
66373;SHT30;53168;51.146;17.120;2022-09-06T14:04:30;28.89;32.12
66373;SHT30;53168;51.146;17.120;2022-09-06T14:07:00;28.69;31.94
66373;SHT30;53168;51.146;17.120;2022-09-06T14:09:29;28.53;32.14
66373;SHT30;53168;51.146;17.120;2022-09-06T14:11:59;28.53;31.71
66373;SHT30;53168;51.146;17.120;2022-09-06T14:14:28;28.47;31.34
66373;SHT30;53168;51.146;17.120;2022-09-06T14:17:01;28.36;31.74
66373;SHT30;53168;51.146;17.120;2022-09-06T14:19:35;28.09;31.63
66373;SHT30;53168;51.146;17.120;2022-09-06T14:22:06;27.88;32.47
66373;SHT30;53168;51.146;17.120;2022-09-06T14:24:36;27.49;32.15
66373;SHT30;53168;51.146;17.120;2022-09-06T14:33:32;26.27;33.03
66373;SHT30;53168;51.146;17.120;2022-09-06T14:36:14;26.11;33.47
66373;SHT30;53168;51.146;17.120;2022-09-06T14:38:49;25.99;33.74
66373;SHT30;53168;51.146;17.120;2022-09-06T14:41:29;25.85;33.97
66373;SHT30;53168;51.146;17.120;2022-09-06T14:44:07;25.74;34.35
66373;SHT30;53168;51.146;17.120;2022-09-06T14:46:37;25.61;34.26
66373;SHT30;53168;51.146;17.120;2022-09-06T14:49:07;25.51;34.91
66373;SHT30;53168;51.146;17.120;2022-09-06T14:51:41;25.36;34.76
66373;SHT30;53168;51.146;17.120;2022-09-06T14:54:12;25.22;34.77
66373;SHT30;53168;51.146;17.120;2022-09-06T14:56:42;25.11;35.13
66373;SHT30;53168;51.146;17.120;2022-09-06T14:59:12;25.04;35.60
66373;SHT30;53168;51.146;17.120;2022-09-06T15:01:45;25.04;35.78
66373;SHT30;53168;51.146;17.120;2022-09-06T15:04:15;25.09;35.77
66373;SHT30;53168;51.146;17.120;2022-09-06T15:07:25;25.90;35.43
66373;SHT30;53168;51.146;17.120;2022-09-06T15:10:19;27.76;34.41
66373;SHT30;53168;51.146;17.120;2022-09-06T15:13:07;29.09;33.45
66373;SHT30;53168;51.146;17.120;2022-09-06T15:16:16;29.17;33.14
66373;SHT30;53168;51.146;17.120;2022-09-06T15:18:46;29.47;32.98
66373;SHT30;53168;51.146;17.120;2022-09-06T15:21:25;28.94;32.75
66373;SHT30;53168;51.146;17.120;2022-09-06T15:24:00;28.34;32.67
66373;SHT30;53168;51.146;17.120;2022-09-06T15:26:35;27.89;32.85
66373;SHT30;53168;51.146;17.120;2022-09-06T15:29:06;27.52;33.32
66373;SHT30;53168;51.146;17.120;2022-09-06T15:34:42;26.50;34.03
66373;SHT30;53168;51.146;17.120;2022-09-06T15:37:12;26.08;33.97
66373;SHT30;53168;51.146;17.120;2022-09-06T15:39:42;25.73;34.46
66373;SHT30;53168;51.146;17.120;2022-09-06T15:43:18;25.31;35.10
66373;SHT30;53168;51.146;17.120;2022-09-06T15:46:43;24.95;35.32
66373;SHT30;53168;51.146;17.120;2022-09-06T15:49:16;24.80;35.59
66373;SHT30;53168;51.146;17.120;2022-09-06T15:51:54;24.84;35.70
66373;SHT30;53168;51.146;17.120;2022-09-06T15:54:26;24.71;35.77
66373;SHT30;53168;51.146;17.120;2022-09-06T15:57:17;24.49;36.07
66373;SHT30;53168;51.146;17.120;2022-09-06T15:59:46;24.32;36.08
66373;SHT30;53168;51.146;17.120;2022-09-06T16:02:15;24.15;36.22
66373;SHT30;53168;51.146;17.120;2022-09-06T16:04:44;23.99;36.21
66373;SHT30;53168;51.146;17.120;2022-09-06T16:07:14;23.80;36.26
66373;SHT30;53168;51.146;17.120;2022-09-06T16:09:43;23.61;36.54
66373;SHT30;53168;51.146;17.120;2022-09-06T16:12:12;23.41;36.60
66373;SHT30;53168;51.146;17.120;2022-09-06T16:14:41;23.26;36.84
66373;SHT30;53168;51.146;17.120;2022-09-06T16:17:10;23.07;37.24
66373;SHT30;53168;51.146;17.120;2022-09-06T16:19:40;22.83;37.48
66373;SHT30;53168;51.146;17.120;2022-09-06T16:22:10;22.64;37.57
66373;SHT30;53168;51.146;17.120;2022-09-06T16:24:39;22.51;37.88
66373;SHT30;53168;51.146;17.120;2022-09-06T16:27:09;22.37;38.39
66373;SHT30;53168;51.146;17.120;2022-09-06T16:29:44;22.19;38.58
66373;SHT30;53168;51.146;17.120;2022-09-06T16:32:13;22.04;38.96
66373;SHT30;53168;51.146;17.120;2022-09-06T16:34:43;21.90;39.41
66373;SHT30;53168;51.146;17.120;2022-09-06T16:37:13;21.75;39.42
66373;SHT30;53168;51.146;17.120;2022-09-06T16:39:42;21.64;39.57
66373;SHT30;53168;51.146;17.120;2022-09-06T16:42:12;21.57;39.75
66373;SHT30;53168;51.146;17.120;2022-09-06T16:44:41;21.49;39.87
66373;SHT30;53168;51.146;17.120;2022-09-06T16:47:11;21.41;40.03
66373;SHT30;53168;51.146;17.120;2022-09-06T16:49:43;21.31;40.11
66373;SHT30;53168;51.146;17.120;2022-09-06T16:52:12;21.21;40.29
66373;SHT30;53168;51.146;17.120;2022-09-06T16:54:41;21.09;40.35
66373;SHT30;53168;51.146;17.120;2022-09-06T16:57:10;20.98;40.62
66373;SHT30;53168;51.146;17.120;2022-09-06T16:59:40;20.92;40.75
66373;SHT30;53168;51.146;17.120;2022-09-06T17:02:10;20.82;41.00
66373;SHT30;53168;51.146;17.120;2022-09-06T17:04:40;20.70;41.42
66373;SHT30;53168;51.146;17.120;2022-09-06T17:07:09;20.58;41.40
66373;SHT30;53168;51.146;17.120;2022-09-06T17:09:38;20.47;41.55
66373;SHT30;53168;51.146;17.120;2022-09-06T17:12:08;20.38;41.71
66373;SHT30;53168;51.146;17.120;2022-09-06T17:14:37;20.29;41.89
66373;SHT30;53168;51.146;17.120;2022-09-06T17:17:06;20.21;41.96
66373;SHT30;53168;51.146;17.120;2022-09-06T17:19:36;20.12;42.13
66373;SHT30;53168;51.146;17.120;2022-09-06T17:22:07;19.99;42.91
66373;SHT30;53168;51.146;17.120;2022-09-06T17:24:38;19.86;42.91
66373;SHT30;53168;51.146;17.120;2022-09-06T17:27:08;19.76;43.17
66373;SHT30;53168;51.146;17.120;2022-09-06T17:29:38;19.68;43.10
66373;SHT30;53168;51.146;17.120;2022-09-06T17:32:07;19.60;43.33